createdAt,value
2018-02-14T00:01:16.260Z,5.97
2018-02-14T00:03:45.293Z,4.00
2018-02-14T00:06:13.569Z,5.27
2018-02-14T00:08:41.860Z,7.27
2018-02-14T00:11:10.135Z,8.17
2018-02-14T00:13:38.410Z,7.33
2018-02-14T00:16:07.467Z,4.57
2018-02-14T00:18:35.748Z,5.00
2018-02-14T00:21:04.050Z,7.33
2018-02-14T00:23:33.472Z,5.07
2018-02-14T00:26:01.740Z,7.43
2018-02-14T00:28:30.003Z,9.57
2018-02-14T00:30:58.280Z,4.50
2018-02-14T00:33:27.295Z,5.20
2018-02-14T00:35:55.591Z,6.87
2018-02-14T00:38:23.879Z,4.27
2018-02-14T00:40:52.154Z,6.30
2018-02-14T00:43:20.456Z,5.37
2018-02-14T00:45:48.735Z,5.53
2018-02-14T00:48:17.757Z,6.57
2018-02-14T00:50:46.045Z,4.93
2018-02-14T00:53:14.299Z,5.30
2018-02-14T00:55:42.579Z,5.63
2018-02-14T00:58:10.831Z,4.57
2018-02-14T01:00:39.129Z,6.83
2018-02-14T01:03:07.392Z,5.80
2018-02-14T01:05:35.723Z,5.63
2018-02-14T01:08:03.988Z,4.33
2018-02-14T01:10:32.281Z,5.20
2018-02-14T01:13:00.551Z,5.50
2018-02-14T01:15:28.843Z,7.10
2018-02-14T01:17:57.106Z,4.27
2018-02-14T01:20:31.951Z,6.07
2018-02-14T01:23:00.988Z,6.57
2018-02-14T01:25:29.266Z,6.17
2018-02-14T01:27:57.536Z,6.57
2018-02-14T01:30:26.565Z,8.80
2018-02-14T01:32:54.849Z,6.60
2018-02-14T01:35:23.907Z,5.07
2018-02-14T01:37:52.180Z,8.37
2018-02-14T01:40:20.459Z,6.33
2018-02-14T01:42:48.736Z,7.83
2018-02-14T01:45:17.011Z,6.90
2018-02-14T01:47:45.292Z,5.80
2018-02-14T01:50:14.983Z,6.73
2018-02-14T01:52:43.256Z,8.10
2018-02-14T01:55:11.519Z,5.10
2018-02-14T01:57:39.816Z,7.03
2018-02-14T02:00:08.115Z,7.43
2018-02-14T02:02:36.407Z,8.90
2018-02-14T02:05:05.500Z,9.67
2018-02-14T02:07:33.785Z,6.07
2018-02-14T02:10:02.070Z,5.67
2018-02-14T02:12:31.062Z,6.80
2018-02-14T02:14:59.304Z,7.27
2018-02-14T02:17:27.572Z,6.53
2018-02-14T02:19:55.832Z,4.93
2018-02-14T02:22:24.106Z,6.93
2018-02-14T02:24:53.122Z,7.77
2018-02-14T02:27:21.708Z,6.57
2018-02-14T02:29:51.339Z,7.87
2018-02-14T02:32:19.596Z,8.57
2018-02-14T02:34:47.890Z,8.43
2018-02-14T02:37:16.159Z,8.30
2018-02-14T02:40:02.292Z,7.10
2018-02-14T02:42:31.360Z,7.53
2018-02-14T02:44:59.641Z,7.27
2018-02-14T02:47:27.904Z,5.30
2018-02-14T02:49:56.229Z,6.53
2018-02-14T02:52:24.510Z,6.63
2018-02-14T02:54:52.788Z,7.23
2018-02-14T02:57:21.058Z,5.50
2018-02-14T02:59:50.100Z,6.40
2018-02-14T03:02:18.372Z,6.83
2018-02-14T03:04:46.649Z,10.03
2018-02-14T03:07:14.907Z,6.60
2018-02-14T03:09:43.183Z,10.17
2018-02-14T03:12:11.443Z,5.53
2018-02-14T03:14:39.733Z,5.83
2018-02-14T03:17:08.019Z,7.87
2018-02-14T03:19:36.304Z,9.67
2018-02-14T03:22:04.643Z,7.90
2018-02-14T03:24:32.940Z,5.70
2018-02-14T03:27:01.969Z,8.90
2018-02-14T03:29:30.343Z,11.03
2018-02-14T03:31:59.383Z,8.20
2018-02-14T03:34:27.671Z,5.63
2018-02-14T03:36:55.947Z,4.70
2018-02-14T03:39:24.239Z,6.60
2018-02-14T03:41:52.498Z,8.33
2018-02-14T03:44:21.568Z,9.27
2018-02-14T03:46:49.820Z,7.10
2018-02-14T03:49:18.097Z,5.90
2018-02-14T03:51:47.128Z,8.93
2018-02-14T03:54:15.442Z,7.33
2018-02-14T03:56:43.719Z,7.73
2018-02-14T03:59:12.002Z,10.70
2018-02-14T04:01:40.276Z,6.83
2018-02-14T04:04:08.567Z,6.60
2018-02-14T04:06:36.893Z,4.90
2018-02-14T04:09:05.208Z,7.83
2018-02-14T04:11:34.290Z,13.50
2018-02-14T04:14:02.582Z,6.30
2018-02-14T04:16:30.857Z,5.13
2018-02-14T04:18:59.117Z,6.07
2018-02-14T04:21:27.404Z,5.77
2018-02-14T04:23:55.676Z,6.70
2018-02-14T04:26:24.711Z,10.57
2018-02-14T04:28:53.004Z,7.77
2018-02-14T04:31:21.289Z,8.73
2018-02-14T04:33:49.554Z,9.40
2018-02-14T04:36:19.332Z,6.40
2018-02-14T04:38:47.592Z,7.03
2018-02-14T04:41:15.876Z,9.93
2018-02-14T04:43:44.139Z,13.37
2018-02-14T04:46:13.188Z,8.80
2018-02-14T04:48:41.439Z,8.03
2018-02-14T04:51:10.504Z,7.13
2018-02-14T04:53:38.787Z,7.37
2018-02-14T04:56:07.856Z,7.27
2018-02-14T04:58:36.918Z,5.50
2018-02-14T05:01:05.206Z,8.13
2018-02-14T05:03:33.483Z,8.07
2018-02-14T05:06:01.767Z,9.43
2018-02-14T05:08:30.029Z,7.03
2018-02-14T05:10:58.318Z,10.47
2018-02-14T05:13:26.622Z,7.47
2018-02-14T05:15:54.890Z,9.83
2018-02-14T05:18:23.184Z,7.83
2018-02-14T05:20:51.557Z,6.03
2018-02-14T05:23:20.571Z,10.93
2018-02-14T05:25:49.630Z,6.33
2018-02-14T05:28:17.897Z,7.03
2018-02-14T05:30:46.161Z,6.97
2018-02-14T05:33:14.450Z,10.60
2018-02-14T05:35:42.744Z,6.90
2018-02-14T05:38:12.487Z,9.23
2018-02-14T05:40:40.751Z,7.20
2018-02-14T05:43:10.168Z,9.77
2018-02-14T05:45:38.899Z,9.37
2018-02-14T05:48:07.347Z,9.87
2018-02-14T05:50:35.640Z,8.70
2018-02-14T05:53:04.753Z,6.40
2018-02-14T05:55:33.860Z,8.67
2018-02-14T05:58:02.919Z,8.53
2018-02-14T06:00:31.178Z,7.67
2018-02-14T06:02:59.667Z,14.53
2018-02-14T06:05:28.663Z,8.83
2018-02-14T06:07:59.507Z,8.00
2018-02-14T06:10:28.948Z,6.17
2018-02-14T06:12:57.237Z,9.10
2018-02-14T06:15:25.531Z,7.67
2018-02-14T06:17:53.808Z,21.43
2018-02-14T06:20:22.091Z,10.30
2018-02-14T06:22:51.138Z,11.03
2018-02-14T06:25:19.407Z,9.20
2018-02-14T06:27:47.696Z,8.80
2018-02-14T06:30:15.966Z,12.40
2018-02-14T06:32:44.338Z,12.00
2018-02-14T06:35:13.359Z,15.80
2018-02-14T06:37:42.380Z,12.83
2018-02-14T06:40:10.651Z,10.90
2018-02-14T06:42:39.707Z,13.47
2018-02-14T06:45:07.998Z,15.83
2018-02-14T06:47:36.332Z,12.90
2018-02-14T06:50:05.986Z,12.83
2018-02-14T06:52:34.552Z,12.80
2018-02-14T06:55:03.619Z,13.13
2018-02-14T06:57:31.959Z,12.30
2018-02-14T07:00:00.239Z,12.67
2018-02-14T07:02:29.375Z,15.50
2018-02-14T07:04:57.648Z,10.93
2018-02-14T07:07:26.711Z,13.20
2018-02-14T07:09:55.042Z,12.60
2018-02-14T07:12:24.101Z,10.53
2018-02-14T07:14:52.406Z,14.53
2018-02-14T07:17:20.711Z,17.53
2018-02-14T07:19:49.030Z,13.70
2018-02-14T07:22:17.302Z,13.23
2018-02-14T07:24:46.343Z,15.33
2018-02-14T07:27:14.607Z,13.60
2018-02-14T07:29:42.892Z,14.37
2018-02-14T07:32:11.929Z,11.20
2018-02-14T07:34:40.966Z,16.10
2018-02-14T07:37:09.233Z,16.60
2018-02-14T07:39:37.511Z,14.30
2018-02-14T07:42:05.806Z,14.10
2018-02-14T07:44:34.095Z,22.70
2018-02-14T07:47:02.368Z,21.10
2018-02-14T07:49:30.658Z,16.63
2018-02-14T07:51:58.924Z,16.67
2018-02-14T07:54:27.990Z,13.27
2018-02-14T07:56:56.260Z,14.50
2018-02-14T07:59:24.542Z,17.10
2018-02-14T08:01:53.597Z,15.30
2018-02-14T08:04:21.906Z,14.10
2018-02-14T08:06:50.955Z,17.57
2018-02-14T08:09:19.224Z,15.43
2018-02-14T08:11:47.505Z,20.27
2018-02-14T08:14:15.772Z,22.57
2018-02-14T08:16:44.821Z,17.60
2018-02-14T08:19:13.195Z,20.80
2018-02-14T08:21:41.494Z,15.60
2018-02-14T08:24:09.770Z,18.17
2018-02-14T08:26:38.807Z,18.67
2018-02-14T08:29:07.864Z,16.73
2018-02-14T08:31:36.929Z,18.77
2018-02-14T08:34:05.195Z,16.17
2018-02-14T08:36:33.471Z,16.43
2018-02-14T08:39:01.792Z,17.50
2018-02-14T08:41:30.069Z,18.37
2018-02-14T08:43:58.387Z,17.27
2018-02-14T08:46:27.431Z,20.70
2018-02-14T08:48:55.699Z,15.77
2018-02-14T08:51:24.020Z,15.07
2018-02-14T08:53:53.048Z,16.90
2018-02-14T08:56:21.501Z,19.50
2018-02-14T08:58:49.767Z,17.80
2018-02-14T09:01:18.085Z,18.03
2018-02-14T09:03:46.479Z,14.90
2018-02-14T09:06:14.760Z,15.70
2018-02-14T09:08:43.067Z,20.13
2018-02-14T09:11:12.167Z,21.30
2018-02-14T09:13:41.244Z,19.63
2018-02-14T09:16:09.536Z,15.73
2018-02-14T09:18:37.890Z,18.70
2018-02-14T09:21:06.516Z,20.63
2018-02-14T09:23:34.844Z,15.80
2018-02-14T09:26:03.244Z,21.23
2018-02-14T09:28:32.318Z,15.60
2018-02-14T09:31:01.079Z,14.57
2018-02-14T09:33:29.370Z,14.13
2018-02-14T09:35:57.665Z,17.53
2018-02-14T09:38:25.949Z,18.77
2018-02-14T09:40:54.681Z,18.30
2018-02-14T09:43:22.967Z,18.07
2018-02-14T09:45:51.998Z,17.10
2018-02-14T09:48:20.291Z,14.43
2018-02-14T09:50:48.566Z,15.93
2018-02-14T09:53:17.302Z,16.60
2018-02-14T09:55:46.439Z,16.63
2018-02-14T09:58:15.599Z,13.50
2018-02-14T10:00:43.974Z,13.30
2018-02-14T10:03:12.417Z,17.80
2018-02-14T10:05:40.872Z,16.03
2018-02-14T10:08:10.730Z,18.97
2018-02-14T10:10:38.991Z,17.90
2018-02-14T10:13:07.312Z,13.87
2018-02-14T10:15:35.893Z,16.27
2018-02-14T10:18:05.043Z,14.93
2018-02-14T10:20:33.834Z,19.47
2018-02-14T10:23:04.316Z,18.00
2018-02-14T10:25:33.998Z,16.50
2018-02-14T10:28:03.283Z,14.40
2018-02-14T10:30:31.874Z,13.73
2018-02-14T10:33:00.884Z,14.67
2018-02-14T10:35:29.489Z,14.70
2018-02-14T10:37:58.389Z,16.43
2018-02-14T10:40:26.908Z,13.17
2018-02-14T10:42:55.482Z,13.33
2018-02-14T10:45:24.384Z,16.97
2018-02-14T10:47:52.990Z,15.90
2018-02-14T10:50:21.997Z,13.20
2018-02-14T10:52:50.518Z,11.57
2018-02-14T10:55:19.277Z,12.67
2018-02-14T10:57:47.987Z,11.63
2018-02-14T11:00:21.713Z,13.23
2018-02-14T11:02:55.762Z,13.00
2018-02-14T11:05:29.929Z,12.33
2018-02-14T11:07:59.547Z,26.23
2018-02-14T11:10:28.078Z,12.27
2018-02-14T11:12:56.788Z,13.77
2018-02-14T11:15:25.609Z,16.93
2018-02-14T11:17:54.712Z,11.97
2018-02-14T11:20:23.590Z,14.00
2018-02-14T11:22:52.712Z,13.33
2018-02-14T11:25:21.327Z,13.20
2018-02-14T11:27:50.213Z,15.10
2018-02-14T11:30:19.642Z,14.87
2018-02-14T11:32:48.747Z,17.17
2018-02-14T11:35:17.805Z,14.40
2018-02-14T11:37:47.446Z,16.17
2018-02-14T11:40:17.112Z,13.83
2018-02-14T11:42:46.124Z,14.80
2018-02-14T11:45:14.918Z,17.53
2018-02-14T11:47:43.490Z,14.20
2018-02-14T11:50:12.160Z,14.03
2018-02-14T11:52:41.055Z,14.53
2018-02-14T11:55:09.743Z,14.13
2018-02-14T11:57:39.025Z,12.80
2018-02-14T12:00:07.641Z,15.10
2018-02-14T12:02:36.069Z,11.27
2018-02-14T12:05:04.783Z,13.43
2018-02-14T12:07:33.404Z,12.30
2018-02-14T12:10:01.899Z,13.60
2018-02-14T12:12:30.185Z,14.90
2018-02-14T12:14:58.841Z,12.97
2018-02-14T12:17:27.866Z,13.53
2018-02-14T12:19:56.307Z,10.37
2018-02-14T12:22:25.129Z,15.67
2018-02-14T12:24:54.774Z,10.33
2018-02-14T12:27:23.955Z,11.53
2018-02-14T12:29:54.194Z,11.97
2018-02-14T12:32:24.057Z,11.60
2018-02-14T12:34:52.556Z,10.07
2018-02-14T12:37:21.758Z,12.00
2018-02-14T12:39:50.317Z,12.73
2018-02-14T12:42:19.404Z,12.93
2018-02-14T12:44:48.841Z,10.07
2018-02-14T12:47:18.900Z,12.10
2018-02-14T12:49:47.696Z,12.93
2018-02-14T12:52:16.435Z,10.60
2018-02-14T12:54:45.182Z,10.87
2018-02-14T12:57:14.625Z,11.47
2018-02-14T12:59:43.485Z,14.63
2018-02-14T13:02:13.107Z,8.93
2018-02-14T13:04:41.670Z,13.57
2018-02-14T13:07:10.431Z,10.40
2018-02-14T13:09:39.370Z,11.77
2018-02-14T13:12:08.168Z,10.13
2018-02-14T13:14:36.666Z,9.43
2018-02-14T13:17:05.676Z,13.27
2018-02-14T13:19:34.658Z,10.77
2018-02-14T13:22:03.922Z,11.90
2018-02-14T13:24:32.680Z,11.57
2018-02-14T13:27:01.510Z,12.50
2018-02-14T13:29:30.571Z,14.07
2018-02-14T13:32:00.741Z,12.33
2018-02-14T13:34:29.363Z,12.03
2018-02-14T13:36:58.108Z,7.60
2018-02-14T13:39:27.166Z,11.90
2018-02-14T13:41:55.897Z,13.00
2018-02-14T13:44:24.625Z,10.63
2018-02-14T13:46:53.144Z,10.67
2018-02-14T13:49:21.846Z,11.10
2018-02-14T13:51:50.723Z,8.80
2018-02-14T13:54:19.324Z,11.07
2018-02-14T13:56:48.353Z,13.57
2018-02-14T13:59:17.234Z,11.00
2018-02-14T14:01:45.734Z,9.87
2018-02-14T14:04:14.426Z,11.10
2018-02-14T14:06:43.057Z,12.20
2018-02-14T14:09:12.194Z,10.43
2018-02-14T14:11:41.271Z,10.00
2018-02-14T14:14:09.936Z,12.07
2018-02-14T14:16:38.557Z,10.60
2018-02-14T14:19:07.417Z,11.37
2018-02-14T14:21:36.280Z,11.87
2018-02-14T14:24:05.797Z,10.50
2018-02-14T14:26:34.525Z,11.47
2018-02-14T14:29:03.494Z,11.47
2018-02-14T14:31:32.338Z,9.83
2018-02-14T14:34:01.361Z,9.27
2018-02-14T14:36:30.127Z,10.70
2018-02-14T14:38:59.420Z,11.13
2018-02-14T14:41:27.901Z,10.27
2018-02-14T14:43:57.117Z,9.87
2018-02-14T14:46:25.702Z,11.43
2018-02-14T14:48:54.712Z,11.70
2018-02-14T14:51:23.191Z,17.60
2018-02-14T14:53:52.599Z,9.43
2018-02-14T14:56:21.662Z,13.20
2018-02-14T14:58:52.342Z,8.67
2018-02-14T15:01:21.118Z,9.40
2018-02-14T15:03:50.556Z,9.70
2018-02-14T15:06:19.836Z,8.73
2018-02-14T15:08:49.559Z,10.57
2018-02-14T15:11:19.086Z,12.47
2018-02-14T15:13:48.884Z,9.53
2018-02-14T15:16:17.581Z,9.77
2018-02-14T15:18:46.559Z,9.60
2018-02-14T15:21:15.276Z,9.20
2018-02-14T15:23:45.541Z,10.10
2018-02-14T15:26:14.342Z,8.93
2018-02-14T15:28:44.217Z,11.83
2018-02-14T15:31:12.705Z,11.03
2018-02-14T15:33:41.629Z,9.10
2018-02-14T15:36:10.338Z,9.10
2018-02-14T15:38:39.871Z,8.10
2018-02-14T15:41:09.828Z,8.60
2018-02-14T15:43:38.792Z,8.70
2018-02-14T15:46:07.586Z,10.70
2018-02-14T15:48:36.523Z,11.57
2018-02-14T15:51:05.045Z,8.27
2018-02-14T15:53:34.068Z,9.93
2018-02-14T15:56:02.588Z,11.23
2018-02-14T15:58:32.093Z,8.30
2018-02-14T16:01:01.691Z,11.87
2018-02-14T16:03:30.584Z,27.17
2018-02-14T16:06:01.121Z,13.30
2018-02-14T16:08:29.917Z,25.73
2018-02-14T16:10:59.632Z,9.77
2018-02-14T16:13:28.815Z,7.73
2018-02-14T16:15:57.684Z,8.63
2018-02-14T16:18:26.679Z,8.43
2018-02-14T16:20:55.280Z,22.10
2018-02-14T16:23:23.959Z,10.90
2018-02-14T16:25:52.723Z,9.27
2018-02-14T16:28:21.030Z,8.07
2018-02-14T16:30:50.641Z,9.00
2018-02-14T16:33:19.445Z,8.97
2018-02-14T16:35:48.067Z,7.30
2018-02-14T16:38:18.018Z,8.53
2018-02-14T16:40:46.795Z,8.70
2018-02-14T16:43:15.649Z,9.77
2018-02-14T16:45:44.561Z,7.53
2018-02-14T16:48:13.098Z,7.73
2018-02-14T16:50:41.645Z,8.00
2018-02-14T16:53:10.172Z,7.00
2018-02-14T16:55:40.517Z,7.40
2018-02-14T16:58:08.947Z,9.30
2018-02-14T17:00:37.221Z,6.30
2018-02-14T17:03:05.629Z,9.43
2018-02-14T17:05:34.061Z,14.80
2018-02-14T17:08:02.306Z,11.50
2018-02-14T17:10:31.381Z,15.83
2018-02-14T17:13:01.411Z,5.87
2018-02-14T17:15:29.887Z,12.23
2018-02-14T17:17:58.171Z,7.30
2018-02-14T17:20:26.726Z,7.67
2018-02-14T17:22:55.187Z,5.87
2018-02-14T17:25:23.626Z,9.57
2018-02-14T17:27:52.032Z,7.63
2018-02-14T17:30:20.407Z,7.63
2018-02-14T17:32:48.691Z,6.37
2018-02-14T17:35:17.153Z,10.20
2018-02-14T17:37:45.417Z,10.13
2018-02-14T17:40:14.574Z,8.27
2018-02-14T17:42:42.899Z,9.13
2018-02-14T17:45:12.915Z,7.27
2018-02-14T17:47:41.227Z,7.23
2018-02-14T17:50:09.623Z,9.40
2018-02-14T17:52:37.902Z,8.47
2018-02-14T17:55:06.154Z,6.93
2018-02-14T17:57:34.437Z,44.80
2018-02-14T18:00:03.655Z,25.37
2018-02-14T18:02:32.063Z,24.00
2018-02-14T18:05:00.403Z,11.50
2018-02-14T18:07:30.333Z,7.90
2018-02-14T18:09:59.539Z,8.67
2018-02-14T18:12:28.079Z,7.60
2018-02-14T18:14:56.584Z,10.67
2018-02-14T18:17:25.994Z,8.70
2018-02-14T18:19:54.309Z,8.30
2018-02-14T18:22:22.590Z,8.67
2018-02-14T18:24:50.988Z,9.33
2018-02-14T18:27:19.392Z,7.37
2018-02-14T18:29:47.663Z,9.40
2018-02-14T18:32:15.981Z,10.30
2018-02-14T18:34:45.243Z,7.07
2018-02-14T18:37:13.629Z,7.40
2018-02-14T18:39:42.279Z,7.77
2018-02-14T18:42:11.683Z,6.47
2018-02-14T18:44:40.459Z,7.03
2018-02-14T18:47:08.820Z,7.97
2018-02-14T18:49:37.236Z,6.63
2018-02-14T18:52:05.710Z,8.00
2018-02-14T18:54:34.588Z,7.70
2018-02-14T18:57:03.714Z,7.17
2018-02-14T18:59:32.100Z,5.87
2018-02-14T19:02:00.589Z,6.43
2018-02-14T19:04:30.145Z,6.30
2018-02-14T19:06:58.425Z,5.47
2018-02-14T19:09:27.019Z,9.17
2018-02-14T19:11:55.453Z,7.10
2018-02-14T19:14:23.834Z,6.87
2018-02-14T19:16:53.924Z,7.00
2018-02-14T19:19:22.447Z,6.00
2018-02-14T19:21:50.848Z,8.63
2018-02-14T19:24:19.153Z,5.87
2018-02-14T19:26:47.437Z,8.90
2018-02-14T19:29:15.868Z,6.27
2018-02-14T19:31:44.954Z,8.37
2018-02-14T19:34:13.266Z,7.80
2018-02-14T19:36:42.468Z,9.60
2018-02-14T19:39:11.952Z,7.50
2018-02-14T19:41:40.612Z,11.30
2018-02-14T19:44:09.005Z,10.33
2018-02-14T19:46:37.268Z,7.30
2018-02-14T19:49:05.557Z,12.70
2018-02-14T19:51:34.714Z,6.87
2018-02-14T19:54:03.273Z,7.10
2018-02-14T19:56:33.451Z,6.83
2018-02-14T19:59:01.985Z,9.77
2018-02-14T20:01:30.381Z,6.80
2018-02-14T20:03:59.545Z,10.10
2018-02-14T20:06:29.325Z,9.00
2018-02-14T20:08:58.543Z,8.07
2018-02-14T20:11:27.723Z,9.57
2018-02-14T20:13:56.307Z,7.03
2018-02-14T20:16:24.591Z,9.63
2018-02-14T20:18:53.225Z,12.57
2018-02-14T20:21:22.985Z,7.37
2018-02-14T20:23:51.390Z,8.60
2018-02-14T20:26:19.740Z,7.93
2018-02-14T20:28:48.804Z,9.00
2018-02-14T20:31:17.283Z,8.17
2018-02-14T20:33:45.606Z,10.30
2018-02-14T20:36:14.967Z,6.57
2018-02-14T20:38:43.468Z,8.43
2018-02-14T20:41:12.048Z,6.80
2018-02-14T20:43:40.997Z,8.57
2018-02-14T20:46:09.367Z,5.60
2018-02-14T20:48:37.652Z,7.97
2018-02-14T20:51:06.032Z,6.43
2018-02-14T20:53:34.485Z,5.37
2018-02-14T20:56:02.948Z,11.87
2018-02-14T20:58:31.301Z,7.47
2018-02-14T21:00:59.639Z,11.67
2018-02-14T21:03:29.063Z,7.67
2018-02-14T21:05:58.537Z,6.60
2018-02-14T21:08:27.235Z,6.33
2018-02-14T21:10:55.942Z,7.07
2018-02-14T21:13:24.285Z,7.20
2018-02-14T21:15:52.982Z,6.87
2018-02-14T21:18:21.312Z,8.13
2018-02-14T21:20:49.736Z,6.73
2018-02-14T21:23:18.824Z,6.63
2018-02-14T21:25:47.597Z,8.37
2018-02-14T21:28:16.034Z,6.63
2018-02-14T21:30:45.876Z,10.67
2018-02-14T21:33:15.063Z,5.97
2018-02-14T21:35:44.538Z,11.40
2018-02-14T21:38:13.793Z,6.77
2018-02-14T21:40:42.554Z,8.40
2018-02-14T21:43:11.201Z,8.57
2018-02-14T21:45:39.901Z,7.03
2018-02-14T21:48:09.252Z,6.77
2018-02-14T21:50:38.457Z,8.00
2018-02-14T21:53:07.613Z,6.93
2018-02-14T21:55:36.260Z,5.50
2018-02-14T21:58:04.650Z,7.43
2018-02-14T22:00:33.044Z,5.60
2018-02-14T22:03:01.599Z,9.50
2018-02-14T22:05:29.977Z,5.40
2018-02-14T22:07:58.428Z,6.30
2018-02-14T22:10:27.607Z,9.70
2018-02-14T22:12:56.012Z,11.10
2018-02-14T22:15:24.472Z,8.83
2018-02-14T22:17:52.773Z,7.67
2018-02-14T22:20:21.602Z,7.33
2018-02-14T22:22:51.097Z,7.87
2018-02-14T22:25:19.406Z,6.83
2018-02-14T22:27:48.755Z,8.47
2018-02-14T22:30:18.536Z,7.03
2018-02-14T22:32:46.885Z,7.40
2018-02-14T22:35:15.239Z,9.23
2018-02-14T22:37:43.566Z,8.47
2018-02-14T22:40:12.083Z,6.90
2018-02-14T22:42:40.408Z,5.73
2018-02-14T22:45:08.775Z,9.10
2018-02-14T22:47:37.166Z,6.80
2018-02-14T22:50:05.552Z,6.17
2018-02-14T22:52:34.084Z,7.17
2018-02-14T22:55:02.563Z,7.73
2018-02-14T22:57:31.227Z,8.03
2018-02-14T22:59:59.761Z,9.17
2018-02-14T23:02:28.117Z,14.27
2018-02-14T23:04:56.437Z,6.63
2018-02-14T23:07:24.743Z,7.00
2018-02-14T23:09:53.021Z,6.33
2018-02-14T23:12:21.335Z,8.67
2018-02-14T23:14:50.392Z,12.27
2018-02-14T23:17:18.680Z,9.53
2018-02-14T23:19:47.237Z,8.93
2018-02-14T23:22:15.777Z,11.73
2018-02-14T23:24:44.429Z,9.57
2018-02-14T23:27:13.026Z,7.97
2018-02-14T23:29:41.637Z,9.10
2018-02-14T23:32:10.112Z,10.20
2018-02-14T23:34:39.385Z,11.60
2018-02-14T23:37:08.530Z,10.77
2018-02-14T23:39:37.757Z,11.57
2018-02-14T23:42:06.044Z,12.23
2018-02-14T23:44:34.323Z,13.43
2018-02-14T23:47:03.357Z,9.93
2018-02-14T23:49:31.635Z,12.17
2018-02-14T23:52:00.733Z,10.20
2018-02-14T23:54:29.776Z,9.57
2018-02-14T23:56:58.077Z,13.77
2018-02-14T23:59:26.358Z,9.90
